Time;durP1;ratioP1;P1;durP2;ratioP2;P2;SDS_P1;SDS_P2;PMS_P1;PMS_P2;Temp;Humidity;BMP_temperature;BMP_pressure;BME280_temperature;BME280_humidity;BME280_pressure;Samples;Min_cycle;Max_cycle;Signal;HPM_P1;HPM_P2
2023/01/10 00:00:35;;;;;;;0.60;0.60;;;6.50;99.90;;;;;;5022327;27;20058;-79
2023/01/10 00:03:03;;;;;;;0.60;0.60;;;6.40;99.90;;;;;;5036143;27;20492;-79
2023/01/10 00:05:29;;;;;;;0.60;0.60;;;6.40;99.90;;;;;;5028047;27;20705;-79
2023/01/10 00:07:54;;;;;;;0.60;0.60;;;6.40;99.90;;;;;;5034402;27;20035;-79
2023/01/10 00:10:21;;;;;;;0.60;0.60;;;6.20;99.90;;;;;;5034616;27;20046;-79
2023/01/10 00:15:32;;;;;;;0.60;0.60;;;6.10;99.90;;;;;;5028874;27;20728;-79
2023/01/10 00:17:58;;;;;;;0.60;0.60;;;6.10;99.90;;;;;;5014189;27;20318;-80
2023/01/10 00:20:24;;;;;;;0.70;0.70;;;6.20;99.90;;;;;;5039983;27;20050;-79
2023/01/10 00:22:50;;;;;;;0.60;0.60;;;6.00;99.90;;;;;;5037541;27;20151;-79
2023/01/10 00:25:20;;;;;;;0.60;0.60;;;6.00;99.90;;;;;;5021185;27;20051;-79
2023/01/10 00:27:56;;;;;;;0.60;0.60;;;5.90;99.90;;;;;;5044820;27;20375;-79
2023/01/10 00:30:22;;;;;;;0.60;0.60;;;5.90;99.90;;;;;;5050704;27;20058;-80
2023/01/10 00:32:48;;;;;;;0.60;0.60;;;6.00;99.90;;;;;;5033872;27;20650;-79
2023/01/10 00:35:14;;;;;;;0.60;0.60;;;5.80;99.90;;;;;;5034650;27;20129;-79
2023/01/10 00:37:40;;;;;;;0.60;0.60;;;5.80;99.90;;;;;;5049397;27;20125;-79
2023/01/10 00:40:08;;;;;;;0.60;0.60;;;5.80;99.90;;;;;;5040228;27;20084;-79
2023/01/10 00:45:21;;;;;;;0.60;0.60;;;5.70;99.90;;;;;;5034453;27;20744;-79
2023/01/10 00:47:47;;;;;;;0.60;0.60;;;5.80;99.90;;;;;;5052887;27;20055;-79
2023/01/10 00:50:13;;;;;;;0.70;0.70;;;5.80;99.90;;;;;;5055259;27;20649;-79
2023/01/10 00:52:39;;;;;;;0.70;0.70;;;6.00;99.90;;;;;;5052399;27;20703;-80
2023/01/10 00:55:05;;;;;;;0.70;0.70;;;6.10;99.90;;;;;;5051644;27;20058;-80
2023/01/10 00:57:31;;;;;;;0.60;0.60;;;6.10;99.90;;;;;;5036889;27;20042;-79
2023/01/10 00:59:57;;;;;;;0.60;0.60;;;6.20;99.90;;;;;;5054349;27;20069;-79
2023/01/10 01:02:23;;;;;;;0.60;0.60;;;6.30;99.90;;;;;;5030222;27;20119;-79
2023/01/10 01:04:49;;;;;;;0.60;0.60;;;6.20;99.90;;;;;;5031614;27;20547;-80
2023/01/10 01:07:15;;;;;;;0.65;0.65;;;6.20;99.90;;;;;;5023008;27;20046;-79
2023/01/10 01:12:25;;;;;;;0.70;0.70;;;6.40;99.90;;;;;;5034776;27;20054;-79
2023/01/10 01:14:51;;;;;;;0.60;0.60;;;6.40;99.90;;;;;;5034893;27;20206;-79
2023/01/10 01:17:17;;;;;;;0.65;0.65;;;6.40;99.90;;;;;;5030401;27;20061;-79
2023/01/10 01:19:43;;;;;;;0.60;0.60;;;6.30;99.90;;;;;;5050332;27;20046;-79
2023/01/10 01:22:09;;;;;;;0.60;0.60;;;6.20;99.90;;;;;;5049221;27;20035;-80
2023/01/10 01:24:35;;;;;;;0.60;0.60;;;6.20;99.90;;;;;;5046716;27;20488;-79
2023/01/10 01:27:01;;;;;;;0.60;0.60;;;6.30;99.90;;;;;;5048472;27;20104;-79
2023/01/10 01:29:26;;;;;;;0.70;0.70;;;6.30;99.90;;;;;;5029843;27;20054;-79
2023/01/10 01:31:52;;;;;;;0.60;0.60;;;6.30;99.90;;;;;;5054972;27;20372;-79
2023/01/10 01:34:18;;;;;;;0.68;0.68;;;6.20;99.90;;;;;;5013175;27;20607;-79
2023/01/10 01:36:45;;;;;;;0.60;0.60;;;6.20;99.90;;;;;;5031550;27;20051;-79
2023/01/10 01:39:11;;;;;;;0.60;0.60;;;6.20;99.90;;;;;;5050903;27;20449;-79
2023/01/10 01:44:22;;;;;;;0.70;0.70;;;6.10;99.90;;;;;;5032339;27;20490;-79
2023/01/10 01:47:05;;;;;;;0.70;0.70;;;6.20;99.90;;;;;;5037944;27;20208;-79
2023/01/10 01:49:36;;;;;;;0.60;0.60;;;6.30;99.90;;;;;;5032033;27;20484;-79
2023/01/10 01:52:07;;;;;;;0.70;0.70;;;6.30;99.90;;;;;;5027953;27;20167;-79
2023/01/10 01:54:34;;;;;;;0.60;0.60;;;6.20;99.90;;;;;;5030628;27;20049;-79
2023/01/10 01:57:14;;;;;;;0.60;0.60;;;6.10;99.90;;;;;;5048073;27;20070;-79
2023/01/10 01:59:45;;;;;;;0.60;0.60;;;6.10;99.90;;;;;;4998970;27;20059;-79
2023/01/10 02:02:24;;;;;;;0.70;0.70;;;6.00;99.90;;;;;;5029809;27;20042;-79
2023/01/10 02:04:59;;;;;;;0.60;0.60;;;5.80;99.90;;;;;;5022445;27;20487;-79
2023/01/10 02:07:28;;;;;;;0.60;0.60;;;5.70;99.90;;;;;;5025052;27;20784;-79
2023/01/10 02:10:00;;;;;;;0.68;0.68;;;5.70;99.90;;;;;;5046905;27;20665;-79
2023/01/10 02:12:28;;;;;;;0.60;0.60;;;5.70;99.90;;;;;;5047393;27;20149;-79
2023/01/10 02:14:55;;;;;;;0.60;0.60;;;5.60;99.90;;;;;;5025295;27;20049;-79
2023/01/10 02:17:21;;;;;;;0.60;0.60;;;5.60;99.90;;;;;;5040957;27;20138;-79
2023/01/10 02:20:00;;;;;;;0.60;0.60;;;5.50;99.90;;;;;;5005777;27;20067;-79
2023/01/10 02:22:53;;;;;;;0.60;0.60;;;5.60;99.90;;;;;;5020120;27;20125;-79
2023/01/10 02:25:41;;;;;;;0.60;0.60;;;5.50;99.90;;;;;;5025265;27;20110;-79
2023/01/10 02:28:21;;;;;;;0.70;0.70;;;5.50;99.90;;;;;;5021736;27;20050;-79
2023/01/10 02:31:05;;;;;;;0.70;0.70;;;5.40;99.90;;;;;;5048450;27;20046;-79
2023/01/10 02:33:50;;;;;;;;;;;5.40;99.90;;;;;;5029909;27;20451;-79
2023/01/10 02:36:35;;;;;;;0.60;0.60;;;5.40;99.90;;;;;;5040519;27;19929;-79
2023/01/10 02:39:22;;;;;;;0.65;0.65;;;5.30;99.90;;;;;;5033843;27;20492;-79
2023/01/10 02:45:01;;;;;;;0.60;0.60;;;5.40;99.90;;;;;;5038617;27;20779;-79
2023/01/10 02:47:35;;;;;;;0.60;0.60;;;5.30;99.90;;;;;;5033577;27;20043;-80
2023/01/10 02:50:20;;;;;;;;;;;5.30;99.90;;;;;;5049369;27;20680;-79
2023/01/10 02:52:46;;;;;;;0.60;0.60;;;5.30;99.90;;;;;;5052351;27;20414;-79
2023/01/10 02:55:12;;;;;;;0.60;0.60;;;5.20;99.90;;;;;;5045749;27;20877;-79
2023/01/10 02:58:04;;;;;;;0.63;0.63;;;5.20;99.90;;;;;;5026572;27;20051;-79
2023/01/10 03:00:57;;;;;;;0.65;0.65;;;5.30;99.90;;;;;;5022772;27;20054;-79
2023/01/10 03:03:35;;;;;;;0.60;0.60;;;5.40;99.90;;;;;;5047450;27;20547;-79
2023/01/10 03:06:18;;;;;;;0.60;0.60;;;5.50;99.90;;;;;;5042650;27;20087;-79
2023/01/10 03:08:56;;;;;;;0.63;0.63;;;5.40;99.90;;;;;;5025496;27;20143;-79
2023/01/10 03:11:40;;;;;;;0.70;0.70;;;5.50;99.90;;;;;;5027921;27;20050;-78
2023/01/10 03:14:27;;;;;;;0.70;0.70;;;5.30;99.90;;;;;;5028531;27;20478;-79
2023/01/10 03:17:05;;;;;;;0.60;0.60;;;5.40;99.90;;;;;;5019279;27;20469;-79
2023/01/10 03:19:38;;;;;;;0.70;0.70;;;5.30;99.90;;;;;;5022064;27;20880;-79
2023/01/10 03:22:05;;;;;;;0.70;0.70;;;5.30;99.90;;;;;;5045148;27;20520;-79
2023/01/10 03:24:35;;;;;;;0.60;0.60;;;5.20;99.90;;;;;;5039563;27;20126;-80
2023/01/10 03:27:07;;;;;;;0.60;0.60;;;5.40;99.90;;;;;;5047702;27;20049;-79
2023/01/10 03:29:51;;;;;;;0.70;0.70;;;5.30;99.90;;;;;;5049151;27;20074;-79
2023/01/10 03:32:22;;;;;;;0.60;0.60;;;5.50;99.90;;;;;;5044858;27;20894;-79
2023/01/10 03:34:49;;;;;;;0.60;0.60;;;5.60;99.90;;;;;;5028936;27;20474;-79
2023/01/10 03:37:19;;;;;;;0.60;0.60;;;5.80;99.90;;;;;;5027221;27;20047;-79
2023/01/10 03:40:00;;;;;;;0.60;0.60;;;5.70;99.90;;;;;;5032798;27;20240;-79
2023/01/10 03:44:42;;;;;;;0.60;0.60;;;5.80;99.90;;;;;;5027506;27;20899;-79
2023/01/10 03:45:25;;;;;;;0.70;0.70;;;5.90;99.90;;;;;;5050669;27;20044;-79
2023/01/10 03:47:54;;;;;;;0.60;0.60;;;5.80;99.90;;;;;;5053785;27;20528;-79
2023/01/10 03:50:24;;;;;;;0.60;0.60;;;5.80;99.90;;;;;;5030237;27;20047;-79
2023/01/10 03:52:50;;;;;;;0.60;0.60;;;5.90;99.90;;;;;;5025752;27;20046;-80
2023/01/10 03:55:26;;;;;;;0.60;0.60;;;5.90;99.90;;;;;;5037438;27;20115;-79
2023/01/10 03:57:52;;;;;;;0.70;0.70;;;5.90;99.90;;;;;;5043645;27;20304;-79
2023/01/10 04:00:19;;;;;;;0.60;0.60;;;5.80;99.90;;;;;;5017328;27;20062;-79
2023/01/10 04:02:45;;;;;;;0.60;0.60;;;5.80;99.90;;;;;;5034122;27;20046;-79
2023/01/10 04:05:11;;;;;;;0.60;0.60;;;5.80;99.90;;;;;;5053389;27;20047;-79
2023/01/10 04:07:37;;;;;;;0.60;0.60;;;5.70;99.90;;;;;;5024751;27;20047;-79
2023/01/10 04:10:04;;;;;;;0.60;0.60;;;5.60;99.90;;;;;;5053938;27;20517;-79
2023/01/10 04:12:30;;;;;;;0.65;0.65;;;5.60;99.90;;;;;;5053295;27;20051;-79
2023/01/10 04:14:56;;;;;;;0.60;0.60;;;5.60;99.90;;;;;;5031145;27;20536;-79
2023/01/10 04:17:22;;;;;;;0.60;0.60;;;5.70;99.90;;;;;;5036370;27;20066;-81
2023/01/10 04:19:48;;;;;;;0.68;0.68;;;5.80;99.90;;;;;;5044756;27;20130;-80
2023/01/10 04:22:14;;;;;;;0.60;0.60;;;5.90;99.90;;;;;;5045806;27;20942;-80
2023/01/10 04:24:40;;;;;;;0.60;0.60;;;5.90;99.90;;;;;;5034888;27;20519;-81
2023/01/10 04:27:06;;;;;;;0.70;0.70;;;5.90;99.90;;;;;;5045698;27;20058;-81
2023/01/10 04:29:31;;;;;;;0.60;0.60;;;6.00;99.90;;;;;;5027405;27;20051;-80
2023/01/10 04:31:57;;;;;;;0.60;0.60;;;6.00;99.90;;;;;;5011828;27;20051;-80
2023/01/10 04:34:23;;;;;;;0.60;0.60;;;6.10;99.90;;;;;;5026580;27;20046;-79
2023/01/10 04:36:49;;;;;;;0.60;0.60;;;6.20;99.90;;;;;;5028062;27;20065;-80
2023/01/10 04:39:15;;;;;;;0.60;0.60;;;6.30;99.90;;;;;;5056780;27;20065;-80
2023/01/10 04:41:41;;;;;;;0.60;0.60;;;6.30;99.90;;;;;;5044237;27;20058;-80
2023/01/10 04:44:07;;;;;;;0.60;0.60;;;6.30;99.90;;;;;;5028480;27;20043;-80
2023/01/10 04:46:33;;;;;;;0.70;0.70;;;6.30;99.90;;;;;;5038054;27;20081;-80
2023/01/10 04:48:59;;;;;;;0.60;0.60;;;6.40;99.90;;;;;;5015444;27;20070;-80
2023/01/10 04:51:26;;;;;;;0.70;0.70;;;6.30;99.90;;;;;;5054075;27;21005;-80
2023/01/10 04:53:52;;;;;;;0.68;0.68;;;6.20;99.90;;;;;;5025686;27;20444;-80
2023/01/10 04:56:19;;;;;;;0.60;0.60;;;6.10;99.90;;;;;;5044126;27;21159;-80
2023/01/10 04:58:46;;;;;;;0.60;0.60;;;6.00;99.90;;;;;;5043383;27;20126;-80
2023/01/10 05:01:23;;;;;;;0.60;0.60;;;6.00;99.90;;;;;;5047089;27;20088;-80
2023/01/10 05:03:50;;;;;;;0.60;0.60;;;5.90;99.90;;;;;;5009517;27;20047;-80
2023/01/10 05:06:17;;;;;;;0.60;0.60;;;5.80;99.90;;;;;;5042162;27;20590;-80
2023/01/10 05:08:43;;;;;;;0.60;0.60;;;5.80;99.90;;;;;;5053700;27;20063;-80
2023/01/10 05:11:09;;;;;;;0.70;0.70;;;5.90;99.90;;;;;;5034423;27;20059;-80
2023/01/10 05:13:35;;;;;;;0.60;0.60;;;6.00;99.90;;;;;;5039915;27;20130;-80
2023/01/10 05:16:01;;;;;;;0.60;0.60;;;6.10;99.90;;;;;;5034904;27;20476;-80
2023/01/10 05:18:28;;;;;;;0.60;0.60;;;6.10;99.90;;;;;;5025210;27;20085;-80
2023/01/10 05:21:01;;;;;;;0.60;0.60;;;6.00;99.90;;;;;;5031999;27;20058;-80
2023/01/10 05:23:28;;;;;;;0.60;0.60;;;6.00;99.90;;;;;;5041081;27;20049;-80
2023/01/10 05:25:54;;;;;;;0.70;0.70;;;6.10;99.90;;;;;;5020126;27;20051;-80
2023/01/10 05:28:19;;;;;;;0.60;0.60;;;5.90;99.90;;;;;;5030326;27;20239;-80
2023/01/10 05:30:45;;;;;;;0.60;0.60;;;5.90;99.90;;;;;;5044246;27;20412;-80
2023/01/10 05:33:11;;;;;;;0.60;0.60;;;5.90;99.90;;;;;;5044667;27;20050;-80
2023/01/10 05:35:37;;;;;;;0.70;0.70;;;5.90;99.90;;;;;;5032816;27;20069;-80
2023/01/10 05:38:03;;;;;;;0.60;0.60;;;6.10;99.90;;;;;;5031583;27;20039;-80
2023/01/10 05:40:29;;;;;;;0.70;0.70;;;6.10;99.90;;;;;;5060820;27;20117;-80
2023/01/10 05:42:54;;;;;;;0.70;0.70;;;6.20;99.90;;;;;;5030140;27;20047;-81
2023/01/10 05:45:20;;;;;;;0.70;0.70;;;6.20;99.90;;;;;;5027577;27;20054;-80
2023/01/10 05:47:46;;;;;;;0.60;0.60;;;6.20;99.90;;;;;;5055777;27;20640;-80
2023/01/10 05:50:12;;;;;;;0.60;0.60;;;6.20;99.90;;;;;;5037457;27;20050;-80
2023/01/10 05:52:38;;;;;;;0.60;0.60;;;6.00;99.90;;;;;;5048671;27;20051;-80
2023/01/10 05:55:04;;;;;;;0.70;0.70;;;6.20;99.90;;;;;;5057063;27;20035;-79
2023/01/10 05:57:30;;;;;;;0.60;0.60;;;6.00;99.90;;;;;;5052052;27;20730;-80
2023/01/10 05:59:56;;;;;;;0.60;0.60;;;6.10;99.90;;;;;;5053343;27;20069;-80
2023/01/10 06:02:22;;;;;;;0.60;0.60;;;6.20;99.90;;;;;;5037717;27;20057;-81
2023/01/10 06:04:48;;;;;;;0.60;0.60;;;6.30;99.90;;;;;;5053618;27;20105;-80
2023/01/10 06:07:14;;;;;;;0.60;0.60;;;6.20;99.90;;;;;;5035649;27;20047;-80
2023/01/10 06:09:40;;;;;;;0.70;0.70;;;6.30;99.90;;;;;;5023133;27;20128;-80
2023/01/10 06:12:05;;;;;;;0.70;0.70;;;6.30;99.90;;;;;;5033409;27;20333;-80
2023/01/10 06:14:31;;;;;;;0.60;0.60;;;6.50;99.90;;;;;;5053760;27;20436;-80
2023/01/10 06:16:57;;;;;;;0.60;0.60;;;6.50;99.90;;;;;;5036768;27;20086;-80
2023/01/10 06:19:23;;;;;;;0.60;0.60;;;6.50;99.90;;;;;;5054978;27;20112;-80
2023/01/10 06:21:49;;;;;;;0.70;0.70;;;6.30;99.90;;;;;;5047778;27;20046;-80
2023/01/10 06:24:15;;;;;;;0.60;0.60;;;6.40;99.90;;;;;;5069831;27;20589;-80
2023/01/10 06:26:40;;;;;;;0.60;0.60;;;6.40;99.90;;;;;;5054685;27;20042;-80
2023/01/10 06:29:06;;;;;;;0.65;0.65;;;6.30;99.90;;;;;;5034173;27;20049;-79
2023/01/10 06:31:32;;;;;;;0.60;0.60;;;6.20;99.90;;;;;;5031191;27;20496;-80
2023/01/10 06:33:58;;;;;;;0.70;0.70;;;6.30;99.90;;;;;;5032248;27;20157;-80
2023/01/10 06:36:24;;;;;;;0.60;0.60;;;6.20;99.90;;;;;;5033947;27;20455;-80
2023/01/10 06:38:49;;;;;;;0.60;0.60;;;6.10;99.90;;;;;;5028371;27;20065;-81
2023/01/10 06:41:15;;;;;;;0.70;0.70;;;6.00;99.90;;;;;;5029318;27;20050;-80
2023/01/10 06:43:44;;;;;;;0.60;0.60;;;6.00;99.90;;;;;;5032598;27;20175;-80
2023/01/10 06:46:11;;;;;;;0.60;0.60;;;5.90;99.90;;;;;;5031235;27;20876;-80
2023/01/10 06:48:37;;;;;;;0.60;0.60;;;6.10;99.90;;;;;;5034358;27;20844;-80
2023/01/10 06:51:04;;;;;;;0.60;0.60;;;6.10;99.90;;;;;;5049075;27;20043;-80
2023/01/10 06:53:31;;;;;;;0.70;0.70;;;6.00;99.90;;;;;;5006663;27;20058;-80
2023/01/10 06:55:56;;;;;;;0.60;0.60;;;6.00;99.90;;;;;;5032764;27;20316;-80
2023/01/10 06:58:23;;;;;;;0.68;0.68;;;6.00;99.90;;;;;;5028339;27;20528;-80
2023/01/10 07:00:49;;;;;;;0.60;0.60;;;6.20;99.90;;;;;;5026988;27;20054;-80
2023/01/10 07:03:16;;;;;;;0.70;0.70;;;6.10;99.90;;;;;;5051684;27;20058;-80
2023/01/10 07:05:41;;;;;;;0.60;0.60;;;6.00;99.90;;;;;;5032814;27;20428;-80
2023/01/10 07:08:07;;;;;;;0.60;0.60;;;5.90;99.90;;;;;;5017942;27;20116;-80
2023/01/10 07:10:33;;;;;;;0.60;0.60;;;6.00;99.90;;;;;;5028308;27;20513;-80
2023/01/10 07:12:59;;;;;;;0.60;0.60;;;5.80;99.90;;;;;;5045205;27;20104;-80
2023/01/10 07:15:26;;;;;;;0.60;0.60;;;5.90;99.90;;;;;;5035241;27;20057;-80
2023/01/10 07:17:52;;;;;;;0.70;0.70;;;5.90;99.90;;;;;;5037815;27;20590;-80
2023/01/10 07:20:18;;;;;;;0.60;0.60;;;5.80;99.90;;;;;;5029463;27;20062;-79
2023/01/10 07:22:51;;;;;;;0.60;0.60;;;5.90;99.90;;;;;;5029179;27;20073;-80
2023/01/10 07:25:17;;;;;;;0.70;0.70;;;6.10;99.90;;;;;;5058241;27;20047;-80
2023/01/10 07:27:42;;;;;;;0.60;0.60;;;6.20;99.90;;;;;;5044589;27;20808;-80
2023/01/10 07:30:09;;;;;;;0.60;0.60;;;6.20;99.90;;;;;;5053015;27;20071;-80
2023/01/10 07:32:35;;;;;;;0.60;0.60;;;6.30;99.90;;;;;;5012298;27;20542;-80
2023/01/10 07:35:01;;;;;;;0.60;0.60;;;6.40;99.90;;;;;;5033025;27;20046;-80
2023/01/10 07:37:29;;;;;;;0.60;0.60;;;6.40;99.90;;;;;;5015856;27;20741;-80
2023/01/10 07:39:55;;;;;;;0.60;0.60;;;6.50;99.90;;;;;;5058490;27;20148;-80
2023/01/10 07:42:21;;;;;;;0.60;0.60;;;6.50;99.90;;;;;;5053176;27;20047;-80
2023/01/10 07:44:47;;;;;;;0.60;0.60;;;6.40;99.90;;;;;;5033603;27;20046;-80
2023/01/10 07:47:12;;;;;;;0.60;0.60;;;6.20;99.90;;;;;;5052700;27;20928;-81
2023/01/10 07:49:38;;;;;;;0.60;0.60;;;6.20;99.90;;;;;;5030152;27;20214;-80
2023/01/10 07:52:06;;;;;;;0.60;0.60;;;6.20;99.90;;;;;;5012067;27;20111;-80
2023/01/10 07:54:32;;;;;;;0.60;0.60;;;6.20;99.90;;;;;;5031001;27;20118;-81
2023/01/10 07:56:58;;;;;;;0.60;0.60;;;6.10;99.90;;;;;;5039416;27;20254;-80
2023/01/10 07:59:23;;;;;;;0.60;0.60;;;6.20;99.90;;;;;;5052169;27;20043;-80
2023/01/10 08:01:49;;;;;;;0.70;0.70;;;6.20;99.90;;;;;;5031093;27;21018;-80
2023/01/10 08:04:15;;;;;;;0.60;0.60;;;6.10;99.90;;;;;;5027933;27;20079;-80
2023/01/10 08:06:40;;;;;;;0.60;0.60;;;6.10;99.90;;;;;;5031134;27;20130;-80
2023/01/10 08:09:06;;;;;;;0.70;0.70;;;6.00;99.90;;;;;;5036972;27;20431;-81
2023/01/10 08:11:32;;;;;;;0.60;0.60;;;6.10;99.90;;;;;;5039058;27;20046;-80
2023/01/10 08:13:58;;;;;;;0.60;0.60;;;6.10;99.90;;;;;;5035941;27;20407;-80
2023/01/10 08:16:23;;;;;;;0.60;0.60;;;6.00;99.90;;;;;;5029836;27;20065;-80
2023/01/10 08:18:49;;;;;;;0.60;0.60;;;6.10;99.90;;;;;;5027276;27;20471;-80
2023/01/10 08:21:15;;;;;;;0.60;0.60;;;6.00;99.90;;;;;;5033832;27;20057;-79
2023/01/10 08:23:41;;;;;;;0.70;0.70;;;6.00;99.90;;;;;;5032263;27;20866;-80
2023/01/10 08:26:07;;;;;;;0.60;0.60;;;6.20;99.90;;;;;;5011377;27;20078;-80
2023/01/10 08:28:32;;;;;;;0.60;0.60;;;6.20;99.90;;;;;;5048404;27;20051;-80
2023/01/10 08:31:05;;;;;;;0.60;0.60;;;6.20;99.90;;;;;;5053342;27;20043;-80
2023/01/10 08:33:31;;;;;;;0.60;0.60;;;6.20;99.90;;;;;;5033686;27;20115;-80
2023/01/10 08:35:57;;;;;;;0.70;0.70;;;6.20;99.90;;;;;;5050064;27;20047;-80
2023/01/10 08:38:23;;;;;;;0.60;0.60;;;6.20;99.90;;;;;;5054168;27;20142;-80
2023/01/10 08:40:49;;;;;;;0.60;0.60;;;6.20;99.90;;;;;;5035118;27;20413;-80
2023/01/10 08:43:15;;;;;;;0.60;0.60;;;6.40;99.90;;;;;;5038292;27;20043;-80
2023/01/10 08:45:41;;;;;;;0.60;0.60;;;6.60;99.90;;;;;;5044939;27;20046;-80
2023/01/10 08:48:08;;;;;;;0.60;0.60;;;6.70;99.90;;;;;;5019369;27;20688;-80
2023/01/10 08:50:34;;;;;;;0.60;0.60;;;6.80;99.90;;;;;;5041886;27;20476;-80
2023/01/10 08:53:00;;;;;;;0.60;0.60;;;6.90;99.90;;;;;;5036047;27;21050;-79
2023/01/10 08:55:27;;;;;;;0.60;0.60;;;6.90;99.90;;;;;;5040172;27;20043;-80
2023/01/10 08:57:53;;;;;;;0.60;0.60;;;6.80;99.90;;;;;;5052134;27;20867;-79
2023/01/10 09:00:19;;;;;;;0.60;0.60;;;6.80;99.90;;;;;;5029498;27;20039;-80
2023/01/10 09:02:45;;;;;;;0.60;0.60;;;6.70;99.90;;;;;;5029455;27;20506;-80
2023/01/10 09:05:11;;;;;;;0.60;0.60;;;6.80;99.90;;;;;;5036495;27;20262;-80
2023/01/10 09:07:40;;;;;;;0.60;0.60;;;6.80;99.90;;;;;;5032745;27;20204;-80
2023/01/10 09:10:06;;;;;;;0.60;0.60;;;6.80;99.90;;;;;;5028858;27;20139;-80
2023/01/10 09:15:16;;;;;;;0.60;0.60;;;6.80;99.90;;;;;;5027867;27;20047;-80
2023/01/10 09:17:41;;;;;;;0.60;0.60;;;6.90;99.90;;;;;;5036859;27;20054;-80
2023/01/10 09:20:09;;;;;;;0.60;0.60;;;6.90;99.90;;;;;;5059802;27;20610;-80
2023/01/10 09:22:38;;;;;;;9.18;8.75;;;7.10;99.90;;;;;;5037219;27;20058;-80
2023/01/10 09:25:05;;;;;;;0.60;0.60;;;7.00;99.90;;;;;;5037359;27;20432;-80
2023/01/10 09:27:31;;;;;;;0.60;0.60;;;7.00;99.90;;;;;;5052581;27;20804;-80
2023/01/10 09:29:57;;;;;;;0.60;0.60;;;7.10;99.90;;;;;;5032563;27;20043;-80
2023/01/10 09:32:24;;;;;;;0.60;0.60;;;7.10;99.90;;;;;;5029564;27;20046;-80
2023/01/10 09:34:50;;;;;;;0.60;0.60;;;7.20;99.90;;;;;;5056514;27;20617;-81
2023/01/10 09:37:16;;;;;;;0.60;0.60;;;7.20;99.90;;;;;;5033775;27;20510;-81
2023/01/10 09:39:42;;;;;;;0.60;0.60;;;7.20;99.90;;;;;;5033571;27;20638;-80
2023/01/10 09:42:34;;;;;;;0.60;0.60;;;7.20;99.90;;;;;;5059171;27;20046;-81
2023/01/10 09:45:24;;;;;;;0.60;0.60;;;7.30;99.90;;;;;;5038582;27;20047;-80
2023/01/10 09:48:36;;;;;;;0.60;0.60;;;7.30;99.90;;;;;;5030421;27;20259;-80
2023/01/10 09:51:28;;;;;;;0.60;0.60;;;7.40;99.90;;;;;;5016331;27;20539;-80
2023/01/10 09:53:58;;;;;;;0.60;0.60;;;7.50;99.90;;;;;;5035167;27;20149;-80
2023/01/10 09:56:26;;;;;;;0.70;0.70;;;7.50;99.90;;;;;;5033972;27;20051;-80
2023/01/10 09:58:52;;;;;;;0.60;0.60;;;7.50;99.90;;;;;;5037790;27;20210;-80
2023/01/10 10:01:24;;;;;;;0.60;0.60;;;7.50;99.90;;;;;;5052176;27;20039;-80
2023/01/10 10:04:04;;;;;;;0.60;0.60;;;7.50;99.90;;;;;;5027439;27;20542;-80
2023/01/10 10:06:33;;;;;;;0.60;0.60;;;7.50;99.90;;;;;;5037848;27;20051;-79
2023/01/10 10:09:00;;;;;;;0.60;0.60;;;7.60;99.90;;;;;;5056031;27;20126;-80
2023/01/10 10:11:25;;;;;;;0.60;0.60;;;7.60;99.90;;;;;;5034960;27;20527;-80
2023/01/10 10:14:05;;;;;;;0.60;0.60;;;7.60;99.90;;;;;;5040795;27;20047;-80
2023/01/10 10:17:06;;;;;;;0.60;0.60;;;7.70;99.90;;;;;;5024523;27;20619;-81
2023/01/10 10:19:50;;;;;;;0.60;0.60;;;7.80;99.90;;;;;;5033604;27;20563;-80
2023/01/10 10:22:44;;;;;;;0.60;0.60;;;7.80;99.90;;;;;;5037358;27;20047;-80
2023/01/10 10:25:36;;;;;;;0.60;0.60;;;7.80;99.90;;;;;;5037962;27;20086;-80
2023/01/10 10:28:59;;;;;;;0.60;0.60;;;7.80;99.90;;;;;;5034804;27;20035;-81
2023/01/10 10:31:46;;;;;;;0.60;0.60;;;7.80;99.90;;;;;;4984567;27;20047;-80
2023/01/10 10:34:37;;;;;;;0.60;0.60;;;7.80;99.90;;;;;;5032643;27;20048;-80
2023/01/10 10:37:11;;;;;;;0.60;0.60;;;7.90;99.90;;;;;;5036649;27;20578;-80
2023/01/10 10:39:52;;;;;;;0.60;0.60;;;7.80;99.90;;;;;;5030007;27;20543;-80
2023/01/10 10:42:19;;;;;;;0.68;0.68;;;7.80;99.90;;;;;;5034619;27;20861;-80
2023/01/10 10:45:06;;;;;;;0.68;0.68;;;7.80;99.90;;;;;;5034792;27;20412;-80
2023/01/10 10:47:34;;;;;;;0.60;0.60;;;7.90;99.90;;;;;;5030629;27;20552;-81
2023/01/10 10:50:22;;;;;;;0.60;0.60;;;7.80;99.90;;;;;;5027697;27;20039;-80
2023/01/10 10:52:48;;;;;;;0.60;0.60;;;7.90;99.90;;;;;;5061315;27;20078;-81
2023/01/10 10:55:22;;;;;;;0.60;0.60;;;7.80;99.90;;;;;;5035759;27;20129;-80
2023/01/10 10:57:49;;;;;;;0.60;0.60;;;7.80;99.90;;;;;;5030177;27;20038;-80
2023/01/10 11:00:18;;;;;;;0.60;0.60;;;7.80;99.90;;;;;;5032751;27;20051;-81
2023/01/10 11:02:59;;;;;;;0.60;0.60;;;7.80;99.90;;;;;;5017481;27;20782;-80
2023/01/10 11:05:36;;;;;;;0.60;0.60;;;7.90;99.90;;;;;;5033056;27;20558;-81
2023/01/10 11:08:12;;;;;;;0.60;0.60;;;7.90;99.90;;;;;;5035016;27;20043;-80
2023/01/10 11:10:39;;;;;;;0.60;0.60;;;7.90;99.90;;;;;;5017430;27;20059;-80
2023/01/10 11:13:31;;;;;;;0.60;0.60;;;7.90;99.90;;;;;;5054949;27;20157;-80
2023/01/10 11:15:58;;;;;;;0.60;0.60;;;8.00;99.90;;;;;;5048628;27;20054;-80
2023/01/10 11:18:26;;;;;;;0.60;0.60;;;8.00;99.90;;;;;;5032716;27;20055;-80
2023/01/10 11:20:57;;;;;;;0.60;0.60;;;8.00;99.90;;;;;;5033655;27;20174;-81
2023/01/10 11:23:54;;;;;;;0.60;0.60;;;8.00;99.90;;;;;;5020121;27;20050;-81
2023/01/10 11:26:33;;;;;;;0.60;0.60;;;8.00;99.90;;;;;;5028301;27;20051;-81
2023/01/10 11:29:19;;;;;;;0.60;0.60;;;7.90;99.90;;;;;;5028150;27;20559;-80
2023/01/10 11:31:46;;;;;;;0.60;0.60;;;7.90;99.90;;;;;;5028738;27;20274;-81
2023/01/10 11:34:34;;;;;;;0.60;0.60;;;7.90;99.90;;;;;;5030276;27;20385;-81
2023/01/10 11:37:03;;;;;;;0.60;0.60;;;7.80;99.90;;;;;;5024966;27;20098;-80
2023/01/10 11:39:31;;;;;;;0.60;0.60;;;7.90;99.90;;;;;;5030149;27;20055;-80
2023/01/10 11:42:16;;;;;;;0.60;0.60;;;7.90;99.90;;;;;;5037866;27;20240;-81
2023/01/10 11:44:42;;;;;;;0.60;0.60;;;7.90;99.90;;;;;;5042354;27;20122;-80
2023/01/10 11:47:13;;;;;;;0.60;0.60;;;7.80;99.90;;;;;;5043731;27;20050;-80
2023/01/10 11:49:44;;;;;;;0.60;0.60;;;7.80;99.90;;;;;;5064064;27;20831;-80
2023/01/10 11:52:19;;;;;;;0.60;0.60;;;7.80;99.90;;;;;;5040946;27;20051;-80
2023/01/10 11:54:45;;;;;;;0.60;0.60;;;7.80;99.90;;;;;;5042989;27;20054;-80
2023/01/10 11:57:15;;;;;;;0.60;0.60;;;7.80;99.90;;;;;;5057699;27;20065;-81
2023/01/10 11:59:55;;;;;;;0.70;0.70;;;7.80;99.90;;;;;;5030280;27;20482;-80
2023/01/10 12:02:34;;;;;;;0.60;0.60;;;7.80;99.90;;;;;;5033119;27;20496;-80
2023/01/10 12:05:04;;;;;;;0.60;0.60;;;7.80;99.90;;;;;;5032154;27;20054;-80
2023/01/10 12:07:50;;;;;;;0.60;0.60;;;7.80;99.90;;;;;;5039811;27;20047;-80
2023/01/10 12:10:22;;;;;;;0.60;0.60;;;7.80;99.90;;;;;;5027077;27;20396;-80
2023/01/10 12:12:57;;;;;;;0.60;0.60;;;7.70;99.90;;;;;;5039927;27;20051;-80
2023/01/10 12:15:24;;;;;;;0.60;0.60;;;7.70;99.90;;;;;;5025271;27;20051;-80
2023/01/10 12:17:51;;;;;;;0.60;0.60;;;7.70;99.90;;;;;;5040633;27;20471;-80
2023/01/10 12:20:17;;;;;;;0.60;0.60;;;7.70;99.90;;;;;;5024990;27;20050;-80
2023/01/10 12:22:52;;;;;;;0.60;0.60;;;7.60;99.90;;;;;;5033255;27;20525;-80
2023/01/10 12:25:42;;;;;;;0.60;0.60;;;7.60;99.90;;;;;;5036420;27;20058;-80
2023/01/10 12:28:25;;;;;;;0.60;0.60;;;7.60;99.90;;;;;;5032143;27;20134;-80
2023/01/10 12:30:54;;;;;;;0.60;0.60;;;7.60;99.90;;;;;;5036348;27;20055;-81
2023/01/10 12:33:34;;;;;;;0.60;0.60;;;7.60;99.90;;;;;;5029740;27;20685;-80
2023/01/10 12:36:12;;;;;;;0.60;0.60;;;7.60;99.90;;;;;;5033263;27;20125;-81
2023/01/10 12:39:15;;;;;;;0.60;0.60;;;7.60;99.90;;;;;;5050171;27;20283;-81
2023/01/10 12:44:35;;;;;;;0.60;0.60;;;7.50;99.90;;;;;;5034384;27;21167;-80
2023/01/10 12:47:11;;;;;;;0.60;0.60;;;7.50;99.90;;;;;;5039138;27;20051;-81
2023/01/10 12:49:46;;;;;;;0.70;0.70;;;7.40;99.90;;;;;;5061377;27;20054;-81
2023/01/10 12:52:29;;;;;;;0.60;0.60;;;7.40;99.90;;;;;;5038434;27;20339;-80
2023/01/10 12:54:55;;;;;;;0.60;0.60;;;7.30;99.90;;;;;;5040457;27;20554;-81
2023/01/10 12:57:47;;;;;;;0.60;0.60;;;7.40;99.90;;;;;;5041402;27;20042;-80
2023/01/10 13:00:27;;;;;;;0.60;0.60;;;7.40;99.90;;;;;;5040880;27;20051;-81
2023/01/10 13:02:56;;;;;;;0.60;0.60;;;7.40;99.90;;;;;;5032270;27;20104;-80
2023/01/10 13:05:25;;;;;;;0.60;0.60;;;7.40;99.90;;;;;;5045102;27;20050;-80
2023/01/10 13:07:53;;;;;;;0.60;0.60;;;7.40;99.90;;;;;;5039528;27;20050;-80
2023/01/10 13:10:22;;;;;;;0.60;0.60;;;7.40;99.90;;;;;;5044847;27;20130;-80
2023/01/10 13:13:19;;;;;;;0.60;0.60;;;7.40;99.90;;;;;;5033069;27;20057;-80
2023/01/10 13:16:10;;;;;;;0.60;0.60;;;7.40;99.90;;;;;;5015673;27;20524;-82
2023/01/10 13:18:36;;;;;;;0.60;0.60;;;7.40;99.90;;;;;;5053656;27;20467;-81
2023/01/10 13:21:12;;;;;;;0.60;0.60;;;7.40;99.90;;;;;;5034899;27;20039;-81
2023/01/10 13:24:01;;;;;;;0.60;0.60;;;7.40;99.90;;;;;;5038805;27;20198;-80
2023/01/10 13:26:51;;;;;;;0.60;0.60;;;7.40;99.90;;;;;;5035438;27;20443;-82
2023/01/10 13:29:22;;;;;;;0.60;0.60;;;7.40;99.90;;;;;;5036755;27;20526;-80
2023/01/10 13:31:55;;;;;;;0.60;0.60;;;7.40;99.90;;;;;;5020904;27;20047;-81
2023/01/10 13:34:32;;;;;;;0.60;0.60;;;7.40;99.90;;;;;;5038629;27;20110;-82
2023/01/10 13:37:31;;;;;;;0.60;0.60;;;7.40;99.90;;;;;;5038818;27;20141;-81